»·PEaware :: N101JP KCRQ-KBUR

N101JP :: KCRQ-KBUR

FLIGHT INFORMATION

Flight Status: Arrived
Operator: Privately registered:
United States
More flights under this callsign
Pilot: James T. (870)
Aircraft: PILATUS PC-12 EAGLE
(PC12)
More flights by this aircraft type
Origin: KCRQ McClellan-Palomar
United States
Destination: KBUR Bob Hope-Burbank
United States
More flights between these airports :: More routes between these airports
Route: +MZB293 PEBLE SLI148 SLI V23 LAX LAX316 SILEX
File this flight plan on PilotEdge
Remarks:
Altitude:
(Current/Filed)
80ft
Speed:
(Current/Filed)
200kts
Departed: 20-Aug-15 09:36 AM
Arrived: 20-Aug-15 10:17 AM
Distance/Time
Traveled:
84nm/0:41
Distance/Time
To Go:
Arrived

Flight Plot

Page will automatically refresh every two minutes.


Map Options




Map Legend


Flown Route
Filed Route
Departure Airport
Arrival Airport
Navaid (VOR, NDB)
Fix

Horizontal Profiles

Position Reports

Time Latitude Longitude Heading Altitude Ground
Speed
20-Aug-15 09:32 33.126027 -117.282287 6 336ft 0kts
20-Aug-15 09:33 33.126027 -117.282287 6 336ft 0kts
20-Aug-15 09:34 33.126027 -117.282287 6 336ft 0kts
20-Aug-15 09:35 33.126027 -117.282287 6 336ft 0kts
20-Aug-15 09:36 33.126027 -117.282287 6 336ft 0kts
20-Aug-15 09:37 33.126027 -117.282287 6 336ft 0kts
20-Aug-15 09:38 33.126027 -117.282287 6 336ft 0kts
20-Aug-15 09:39 33.126027 -117.282287 6 336ft 0kts
20-Aug-15 09:40 33.126027 -117.282287 6 336ft 0kts
20-Aug-15 09:41 33.126778 -117.281754 50 337ft 8kts
20-Aug-15 09:42 33.127701 -117.278293 79 336ft 18kts
20-Aug-15 09:43 33.128555 -117.272984 79 336ft 0kts
20-Aug-15 09:44 33.128555 -117.272984 79 336ft 0kts
20-Aug-15 09:45 33.129342 -117.273242 259 336ft 32kts
20-Aug-15 09:46 33.125530 -117.314507 263 1344ft 160kts
20-Aug-15 09:47 33.121590 -117.368221 263 2949ft 170kts
20-Aug-15 09:48 33.116903 -117.430771 263 4256ft 179kts
20-Aug-15 09:49 33.112878 -117.487667 263 5958ft 175kts
20-Aug-15 09:50 33.138814 -117.546919 306 6012ft 230kts
20-Aug-15 09:51 33.177919 -117.597060 319 7841ft 180kts
20-Aug-15 09:52 33.221006 -117.641415 319 8006ft 225kts
20-Aug-15 09:53 33.268982 -117.690881 319 7988ft 221kts
20-Aug-15 09:54 33.313916 -117.738847 317 7992ft 214kts
20-Aug-15 09:55 33.357227 -117.787101 317 7992ft 214kts
20-Aug-15 09:56 33.400839 -117.835544 316 7991ft 216kts
20-Aug-15 09:57 33.444745 -117.884424 316 7991ft 217kts
20-Aug-15 09:58 33.488743 -117.933419 316 7602ft 225kts
20-Aug-15 09:59 33.535880 -117.986004 316 6158ft 236kts
20-Aug-15 10:00 33.579059 -118.034274 315 5977ft 198kts
20-Aug-15 10:01 33.616841 -118.076543 315 5983ft 176kts
20-Aug-15 10:02 33.649301 -118.112810 316 5999ft 168kts
20-Aug-15 10:03 33.683633 -118.151003 315 6002ft 168kts
20-Aug-15 10:04 33.717814 -118.189328 315 5996ft 170kts
20-Aug-15 10:05 33.752447 -118.227858 320 5994ft 171kts
20-Aug-15 10:06 33.790656 -118.261097 323 5995ft 171kts
20-Aug-15 10:07 33.830328 -118.294812 323 5996ft 180kts
20-Aug-15 10:08 33.870720 -118.329165 324 5990ft 175kts
20-Aug-15 10:09 33.909844 -118.362471 324 5990ft 170kts
20-Aug-15 10:10 33.948096 -118.395081 324 5993ft 167kts
20-Aug-15 10:11 33.985854 -118.427309 325 5995ft 166kts
20-Aug-15 10:12 34.023404 -118.459380 324 5998ft 166kts
20-Aug-15 10:13 34.062498 -118.492804 324 5360ft 195kts
20-Aug-15 10:14 34.109419 -118.532995 324 4031ft 209kts
20-Aug-15 10:15 34.152561 -118.570012 323 3992ft 177kts
20-Aug-15 10:16 34.190599 -118.602683 324 4000ft 162kts
20-Aug-15 10:17 34.204567 -118.647401 269 4003ft 152kts
20-Aug-15 10:18 34.204400 -118.698628 269 4000ft 153kts
20-Aug-15 10:19 34.178261 -118.700288 89 4002ft 144kts
20-Aug-15 10:20 34.189898 -118.654024 73 4000ft 146kts
20-Aug-15 10:21 34.201535 -118.607536 89 3966ft 149kts
20-Aug-15 10:22 34.200429 -118.558327 92 3004ft 140kts
20-Aug-15 10:23 34.199808 -118.514486 92 3004ft 125kts
20-Aug-15 10:24 34.199258 -118.472544 91 2628ft 123kts
20-Aug-15 10:25 34.198758 -118.433313 90 1925ft 110kts
20-Aug-15 10:26 34.198276 -118.396378 90 1270ft 110kts
20-Aug-15 10:27 34.197830 -118.362796 88 782ft 34kts
20-Aug-15 10:28 34.198546 -118.360381 353 782ft 5kts
20-Aug-15 10:29 34.200375 -118.358762 89 782ft 0kts
20-Aug-15 10:30 34.200375 -118.358762 89 782ft 0kts
20-Aug-15 10:31 34.200375 -118.358762 89 782ft 0kts
20-Aug-15 10:32 34.200375 -118.358762 89 782ft 0kts
20-Aug-15 10:33 34.200375 -118.358762 89 782ft 0kts
20-Aug-15 10:34 34.200375 -118.358762 89 782ft 0kts
20-Aug-15 10:35 34.200375 -118.358762 89 782ft 0kts
20-Aug-15 10:36 34.200375 -118.358762 89 782ft 0kts
20-Aug-15 10:37 34.200375 -118.358762 89 782ft 0kts
20-Aug-15 10:38 34.200375 -118.358762 89 782ft 0kts
20-Aug-15 10:39 34.200375 -118.358762 89 782ft 0kts
20-Aug-15 10:40 34.200375 -118.358762 89 782ft 0kts
20-Aug-15 10:41 34.200375 -118.358762 89 782ft 0kts

Navigation Log

Ident Type
Flight plan parsing failed, navigation log unavailable